Ana Sayfa
METAR-TAF:

METAR-TAF

Havaalanları :

Municipal_Airport

Plymouth, New Hampshire, Amerika Birleşik Devletleri

Enlem: 43-46-45N, Boylam: 071-45-13W, yükseklik: 154 m

Güncel hava durumu gözlemi

Rapor saat 19:15 UTC de 29 dakika önce yapıldı.
Rüzgar doğu/güneydoğudan 4 kt
Sıcaklık 17°C
Nem 94%
Basınç 1001 hPa
Görüş mesafesi: 8.0 km
1600 ft yükseklikte parçalı çok bulutlu
2300 ft yükseklikte çok bulutlu
Pus

METAR: K1P1 201915Z AUTO 11004KT 5SM BR BKN016 OVC023 17/16 A2956 RMK AO2 LTG DSNT N SE AND S T01720159

Saat: 15:44 (19:44 UTC)


TAF: eksik

4.000'den fazla havaalanı için hava durumu gözlemleri ve tahminleri (METAR ve TAF raporları).

Kullanılabilir istasyonlar harita üzerinde sarı ve kırmızı noktalarla gösterilir.

İstasyonun adını görmek için fareyi noktanın üzerinde gezdirin.

Sonrasında hava gözlem ve tahminlerini görmek için tıklayın.

Haritayı değiştirmek için: yaklaştırmak için siyah artı işaretli yeşil düğmeye ve uzaklaştırmak için de eksi işaretli düğmeye hızla tıklayın; bitişik haritalar için yeşil okları kullanın.


METAR-TAF: